createdAt,value
2017-07-17T00:01:29.855Z,4.03
2017-07-17T00:03:56.659Z,4.60
2017-07-17T00:06:22.734Z,4.55
2017-07-17T00:08:48.815Z,3.35
2017-07-17T00:11:14.863Z,3.30
2017-07-17T00:13:40.914Z,4.82
2017-07-17T00:16:06.974Z,4.40
2017-07-17T00:18:33.039Z,3.60
2017-07-17T00:20:59.094Z,3.72
2017-07-17T00:23:25.141Z,5.00
2017-07-17T00:25:51.213Z,3.45
2017-07-17T00:28:17.261Z,5.30
2017-07-17T09:20:51.703Z,9.73
2017-07-17T09:23:17.759Z,9.18
2017-07-17T09:25:43.819Z,8.25
2017-07-17T09:28:09.879Z,22.65
2017-07-17T09:30:35.975Z,12.25
2017-07-17T09:33:02.066Z,15.70
2017-07-17T09:35:28.125Z,11.60
2017-07-17T09:37:54.282Z,11.12
2017-07-17T09:40:20.331Z,8.95
2017-07-17T09:43:01.342Z,10.23
2017-07-17T09:45:27.447Z,11.63
2017-07-17T09:47:53.499Z,10.50
2017-07-17T09:50:19.571Z,11.12
2017-07-17T09:52:45.631Z,10.13
2017-07-17T09:55:12.393Z,9.90
2017-07-17T09:57:38.644Z,14.20
2017-07-17T10:00:04.747Z,11.65
2017-07-17T10:02:30.803Z,13.27
2017-07-17T10:04:56.863Z,10.45
2017-07-17T10:07:23.938Z,16.00
2017-07-17T10:09:50.007Z,14.60
2017-07-17T10:12:16.079Z,17.43
2017-07-17T10:14:42.147Z,19.73
2017-07-17T10:17:08.211Z,16.42
2017-07-17T10:19:34.269Z,10.20
2017-07-17T10:22:00.322Z,9.80
2017-07-17T10:24:26.379Z,12.50
2017-07-17T10:26:52.466Z,13.80
2017-07-17T10:29:18.651Z,10.17
2017-07-17T10:31:44.718Z,10.75
2017-07-17T10:34:10.822Z,10.07
2017-07-17T10:36:36.871Z,11.65
2017-07-17T10:39:02.972Z,13.60
2017-07-17T10:41:29.031Z,8.47
2017-07-17T10:43:55.875Z,9.73
2017-07-17T10:46:22.680Z,10.18
2017-07-17T10:48:48.764Z,10.25
2017-07-17T10:51:15.020Z,10.67
2017-07-17T10:53:41.117Z,9.43
2017-07-17T10:56:07.902Z,11.97
2017-07-17T10:58:33.979Z,15.63
2017-07-17T11:01:00.027Z,8.77
2017-07-17T11:03:26.110Z,10.10
2017-07-17T11:05:52.184Z,8.87
2017-07-17T11:08:18.234Z,8.20
2017-07-17T11:10:44.342Z,9.68
2017-07-17T11:13:10.510Z,10.63
2017-07-17T11:15:36.554Z,9.40
2017-07-17T11:18:03.355Z,12.53
2017-07-17T11:20:29.398Z,9.93
2017-07-17T11:22:55.459Z,9.33
2017-07-17T11:25:21.526Z,10.10
2017-07-17T11:27:47.595Z,41.15
2017-07-17T11:30:13.630Z,8.60
2017-07-17T11:35:06.366Z,9.70
2017-07-17T11:37:32.451Z,10.47
2017-07-17T11:39:58.510Z,8.90
2017-07-17T11:42:24.584Z,9.47
2017-07-17T11:44:50.639Z,12.60
2017-07-17T11:59:50.379Z,11.37
2017-07-17T12:02:16.443Z,9.97
2017-07-17T12:04:43.242Z,10.60
2017-07-17T12:07:09.298Z,9.77
2017-07-17T12:09:35.370Z,9.60
2017-07-17T12:12:01.421Z,11.27
2017-07-17T12:14:27.547Z,10.30
2017-07-17T12:16:53.603Z,11.52
2017-07-17T12:19:19.882Z,10.00
2017-07-17T12:21:45.954Z,10.20
2017-07-17T12:24:12.062Z,11.47
2017-07-17T12:26:38.106Z,15.87
2017-07-17T12:29:04.210Z,12.80
2017-07-17T12:31:30.246Z,11.60
2017-07-17T12:33:56.281Z,11.60
2017-07-17T12:36:22.385Z,9.97
2017-07-17T12:38:48.438Z,9.57
2017-07-17T12:41:15.463Z,12.43
2017-07-17T12:43:41.506Z,10.23
2017-07-17T12:46:14.386Z,11.70
2017-07-17T12:48:40.430Z,9.80
2017-07-17T12:51:06.487Z,10.57
2017-07-17T12:53:47.536Z,9.40
2017-07-17T12:56:13.575Z,10.47
2017-07-17T12:58:39.626Z,9.33
2017-07-17T13:01:05.670Z,12.37
2017-07-17T13:03:31.731Z,10.90
2017-07-17T13:05:57.773Z,11.83
2017-07-17T13:08:24.553Z,12.70
2017-07-17T13:10:50.624Z,10.80
2017-07-17T13:13:17.198Z,9.63
2017-07-17T13:15:43.485Z,11.17
2017-07-17T13:18:09.539Z,15.77
2017-07-17T13:20:36.326Z,12.77
2017-07-17T13:23:02.383Z,12.40
2017-07-17T13:25:28.429Z,14.03
2017-07-17T13:27:54.536Z,10.73
2017-07-17T13:30:20.598Z,9.70
2017-07-17T13:32:46.722Z,10.00
2017-07-17T13:35:12.762Z,9.33
2017-07-17T13:37:38.909Z,9.10
2017-07-17T13:40:04.974Z,7.97
2017-07-17T13:42:31.027Z,8.00
2017-07-17T13:44:57.090Z,6.40
2017-07-17T13:47:23.206Z,10.30
2017-07-17T13:49:49.272Z,16.30
2017-07-17T13:52:15.333Z,11.47
2017-07-17T13:54:41.373Z,7.30
2017-07-17T13:57:07.465Z,5.93
2017-07-17T13:59:33.771Z,11.97
2017-07-17T14:01:59.811Z,7.23
2017-07-17T14:04:25.854Z,6.20
2017-07-17T14:06:51.909Z,8.10
2017-07-17T14:09:17.983Z,12.20
2017-07-17T14:11:44.026Z,11.77
2017-07-17T14:14:10.091Z,5.87
2017-07-17T14:16:36.182Z,10.87
2017-07-17T14:19:02.230Z,11.90
2017-07-17T14:21:28.618Z,12.83
2017-07-17T14:23:54.670Z,8.00
2017-07-17T14:26:21.472Z,10.90
2017-07-17T14:28:47.520Z,5.20
2017-07-17T14:31:13.590Z,7.10
2017-07-17T14:33:39.643Z,7.53
2017-07-17T14:36:05.687Z,5.23
2017-07-17T14:38:31.740Z,5.13
2017-07-17T14:40:58.551Z,4.33
2017-07-17T14:43:24.707Z,4.67
2017-07-17T14:45:50.766Z,5.83
2017-07-17T14:48:16.836Z,6.53
2017-07-17T14:50:42.878Z,6.83
2017-07-17T14:53:09.689Z,5.63
2017-07-17T14:55:35.731Z,9.30
2017-07-17T14:58:01.798Z,7.27
2017-07-17T15:00:27.841Z,6.60
2017-07-17T15:02:54.633Z,5.93
2017-07-17T15:05:20.746Z,6.13
2017-07-17T15:07:46.794Z,4.80
2017-07-17T15:10:12.837Z,10.20
2017-07-17T15:12:38.896Z,4.63
2017-07-17T15:15:04.946Z,5.30
2017-07-17T15:17:30.978Z,10.37
2017-07-17T15:19:57.029Z,7.73
2017-07-17T15:22:42.814Z,7.50
2017-07-17T15:25:08.871Z,8.30
2017-07-17T15:27:35.974Z,8.47
2017-07-17T15:30:02.014Z,5.30
2017-07-17T15:32:28.062Z,4.97
2017-07-17T15:34:54.114Z,7.40
2017-07-17T15:37:20.162Z,7.83
2017-07-17T15:39:46.242Z,7.97
2017-07-17T15:42:12.294Z,6.47
2017-07-17T15:44:38.359Z,4.73
2017-07-17T15:47:04.412Z,6.40
2017-07-17T15:49:30.708Z,4.90
2017-07-17T15:51:56.769Z,4.20
2017-07-17T15:54:22.835Z,4.93
2017-07-17T15:56:48.893Z,6.33
2017-07-17T15:59:14.954Z,4.70
2017-07-17T16:01:40.994Z,3.47
2017-07-17T16:04:07.034Z,4.80
2017-07-17T16:06:33.091Z,3.97
2017-07-17T16:08:59.150Z,4.67
2017-07-17T16:11:40.198Z,4.00
2017-07-17T16:14:06.242Z,5.20
2017-07-17T16:16:32.303Z,3.43
2017-07-17T16:18:59.102Z,4.37
2017-07-17T16:21:25.146Z,4.37
2017-07-17T16:23:51.201Z,5.30
2017-07-17T16:26:17.246Z,4.57
2017-07-17T16:28:43.292Z,4.30
2017-07-17T16:31:09.379Z,5.13
2017-07-17T16:33:35.761Z,4.53
2017-07-17T16:36:01.824Z,4.47
2017-07-17T16:38:27.879Z,4.00
2017-07-17T16:40:53.924Z,4.10
2017-07-17T16:43:19.980Z,5.20
2017-07-17T16:45:46.025Z,6.93
2017-07-17T16:48:12.074Z,3.90
2017-07-17T16:50:38.138Z,5.53
2017-07-17T16:53:04.198Z,4.20
2017-07-17T16:55:31.008Z,4.00
2017-07-17T16:57:57.094Z,4.17
2017-07-17T17:00:23.163Z,4.40
2017-07-17T17:02:49.247Z,7.53
2017-07-17T17:05:15.323Z,4.30
2017-07-17T17:07:56.334Z,4.30
2017-07-17T17:10:23.135Z,3.80
2017-07-17T17:12:49.188Z,4.30
2017-07-17T17:15:15.289Z,3.90
2017-07-17T17:17:42.133Z,4.27
2017-07-17T17:20:08.177Z,4.00
2017-07-17T17:22:34.215Z,3.60
2017-07-17T17:25:00.294Z,4.53
2017-07-17T17:27:26.349Z,5.40
2017-07-17T17:29:52.389Z,3.40
2017-07-17T17:32:18.463Z,4.17
2017-07-17T17:34:44.528Z,3.73
2017-07-17T17:37:10.573Z,4.00
2017-07-17T17:39:36.849Z,4.00
2017-07-17T17:42:02.892Z,4.43
2017-07-17T17:44:28.927Z,3.50
2017-07-17T17:46:54.969Z,4.00
2017-07-17T17:49:21.035Z,5.00
2017-07-17T17:51:47.105Z,10.63
2017-07-17T17:54:13.231Z,5.70
2017-07-17T17:56:39.290Z,5.30
2017-07-17T17:59:05.338Z,4.53
2017-07-17T18:01:32.136Z,4.40
2017-07-17T18:03:58.182Z,5.03
2017-07-17T18:06:24.260Z,4.57
2017-07-17T18:08:50.300Z,5.50
2017-07-17T18:11:16.337Z,3.67
2017-07-17T18:13:42.414Z,3.77
2017-07-17T18:16:08.462Z,4.63
2017-07-17T18:18:34.503Z,4.57
2017-07-17T18:21:00.547Z,5.10
2017-07-17T18:23:26.837Z,4.53
2017-07-17T18:25:52.919Z,3.90
2017-07-17T18:28:19.735Z,6.30
2017-07-17T18:30:45.786Z,4.87
2017-07-17T18:33:11.842Z,4.30
2017-07-17T18:35:37.893Z,3.87
2017-07-17T18:38:03.935Z,3.93
2017-07-17T18:40:29.986Z,3.30
2017-07-17T18:42:56.029Z,4.00
2017-07-17T18:45:23.035Z,3.90
2017-07-17T18:47:49.075Z,3.40
2017-07-17T18:50:15.122Z,4.17
2017-07-17T18:52:41.189Z,3.20
2017-07-17T18:55:07.238Z,3.57
2017-07-17T18:57:33.294Z,4.60
2017-07-17T18:59:59.345Z,3.50
2017-07-17T19:02:25.399Z,3.33
2017-07-17T19:04:51.466Z,4.83
2017-07-17T19:07:17.746Z,3.83
2017-07-17T19:09:43.792Z,3.50
2017-07-17T19:12:09.830Z,4.67
2017-07-17T19:14:35.896Z,4.47
2017-07-17T19:17:01.949Z,5.30
2017-07-17T19:19:28.030Z,4.13
2017-07-17T19:21:54.070Z,3.80
2017-07-17T19:24:20.859Z,4.93
2017-07-17T19:26:46.901Z,3.50
2017-07-17T19:29:12.997Z,4.57
2017-07-17T19:31:39.062Z,10.70
2017-07-17T19:34:05.128Z,14.63
2017-07-17T19:36:31.178Z,9.13
2017-07-17T19:38:57.227Z,8.00
2017-07-17T19:41:23.298Z,6.40
2017-07-17T19:43:50.097Z,6.80
2017-07-17T19:46:16.163Z,6.93
2017-07-17T19:48:42.234Z,7.43
2017-07-17T19:51:08.357Z,7.90
2017-07-17T19:53:34.415Z,7.30
2017-07-17T19:56:00.481Z,6.60
2017-07-17T19:58:26.542Z,6.20
2017-07-17T20:00:52.580Z,7.10
2017-07-17T20:03:18.637Z,5.40
2017-07-17T20:05:44.683Z,7.23
2017-07-17T20:08:10.747Z,8.15
2017-07-17T20:10:36.806Z,7.90
2017-07-17T20:13:02.910Z,6.07
2017-07-17T20:15:28.961Z,6.77
2017-07-17T20:17:55.007Z,7.00
2017-07-17T20:20:21.063Z,10.97
2017-07-17T20:22:47.130Z,6.62
2017-07-17T20:25:13.182Z,6.77
2017-07-17T20:27:39.229Z,6.40
2017-07-17T20:30:05.323Z,6.82
2017-07-17T20:32:31.363Z,7.47
2017-07-17T20:34:57.427Z,7.53
2017-07-17T20:37:23.478Z,5.68
2017-07-17T20:39:49.538Z,6.53
2017-07-17T20:42:15.594Z,5.93
2017-07-17T20:44:41.655Z,6.55
2017-07-17T20:47:07.709Z,6.33
2017-07-17T20:49:34.049Z,6.00
2017-07-17T20:52:00.838Z,6.22
2017-07-17T20:54:26.896Z,6.87
2017-07-17T20:56:53.212Z,7.23
2017-07-17T20:59:19.256Z,6.20
2017-07-17T21:01:45.303Z,6.57
2017-07-17T21:04:11.363Z,6.70
2017-07-17T21:06:37.407Z,7.62
2017-07-17T21:09:03.494Z,5.85
2017-07-17T21:11:29.550Z,7.70
2017-07-17T21:13:55.593Z,5.80
2017-07-17T21:16:21.655Z,7.20
2017-07-17T21:18:47.723Z,11.05
2017-07-17T21:21:13.767Z,10.97
2017-07-17T21:23:39.826Z,7.90
2017-07-17T21:26:05.875Z,11.90
2017-07-17T21:28:31.923Z,7.57
2017-07-17T21:30:57.969Z,8.63
2017-07-17T21:33:24.026Z,7.90
2017-07-17T21:36:05.075Z,7.60
2017-07-17T21:38:31.149Z,7.95
2017-07-17T21:41:12.188Z,7.93
2017-07-17T21:43:38.274Z,8.85
2017-07-17T21:46:04.341Z,7.80
2017-07-17T21:48:30.416Z,8.40
2017-07-17T21:50:56.470Z,6.83
2017-07-17T21:53:22.538Z,7.00
2017-07-17T21:55:48.622Z,8.00
2017-07-17T21:58:14.757Z,6.87
2017-07-17T22:00:40.811Z,6.97
2017-07-17T22:03:06.854Z,8.05
2017-07-17T22:05:32.905Z,8.68
2017-07-17T22:07:58.975Z,9.02
2017-07-17T22:10:25.014Z,8.30
2017-07-17T22:12:51.091Z,7.15
2017-07-17T22:15:17.143Z,7.30
2017-07-17T22:17:43.211Z,6.80
2017-07-17T22:20:09.295Z,7.62
2017-07-17T22:22:35.382Z,8.85
2017-07-17T22:25:01.451Z,8.73
2017-07-17T22:27:27.506Z,9.15
2017-07-17T22:29:53.601Z,11.93
2017-07-17T22:32:19.651Z,8.55
2017-07-17T22:34:45.718Z,7.80
2017-07-17T22:37:11.794Z,9.68
2017-07-17T22:39:37.843Z,9.50
2017-07-17T22:42:04.131Z,9.18
2017-07-17T22:44:30.179Z,10.05
2017-07-17T22:46:56.994Z,10.85
2017-07-17T22:49:23.038Z,10.15
2017-07-17T22:51:49.096Z,10.02
2017-07-17T22:54:15.163Z,10.13
2017-07-17T22:56:41.235Z,9.80
2017-07-17T22:59:07.278Z,9.60
2017-07-17T23:01:34.066Z,9.73
2017-07-17T23:04:00.185Z,10.25
2017-07-17T23:06:26.242Z,9.43
2017-07-17T23:08:53.079Z,7.18
2017-07-17T23:11:19.160Z,9.45
2017-07-17T23:13:45.218Z,10.27
2017-07-17T23:16:11.266Z,11.20
2017-07-17T23:18:37.316Z,10.13
2017-07-17T23:21:03.382Z,14.02
2017-07-17T23:23:29.426Z,10.32
2017-07-17T23:25:55.650Z,8.30
2017-07-17T23:28:21.710Z,10.85
2017-07-17T23:30:47.777Z,8.07
2017-07-17T23:33:13.834Z,9.48
2017-07-17T23:35:39.893Z,10.50
2017-07-17T23:38:05.947Z,9.20
2017-07-17T23:40:32.002Z,9.10
2017-07-17T23:42:58.093Z,9.43
2017-07-17T23:45:24.144Z,10.50
2017-07-17T23:47:50.479Z,9.02
2017-07-17T23:50:16.532Z,9.93
2017-07-17T23:52:42.582Z,10.30
2017-07-17T23:55:08.666Z,8.50
2017-07-17T23:57:34.722Z,9.90
